Akeley, MN (56433)

11:48 PM CST on February 08, 2016 (GMT -0600)
East Crooked Lake | | Change Station
CLOSE
Current Station
Personal Weather Station
Location: Nevis, MN
Elevation: 1460 ft
Nearby Weather Stations

Elev 1460 ft 47.03 °N, 94.81 °W | Updated 30 seconds ago

Overcast
Overcast
5.0 °F
Feels Like -11 °F
N
11.2
Wind Variable Wind from WNW
Gusts 12.3 mph

Today
High -- | Low -- °F
--% Chance of Precip.
Yesterday
High -- | Low -- °F
Precip. -- in
Pressure 30.17 in
Visibility 8.0 miles
Clouds Overcast 2200 ft
Windchill -11 °F
Dew Point -8 °F
Humidity 55%
Rainfall 0.00 in
Snow Depth Not available.
7:34 AM 5:31 PM
New Moon, 1% visible
METAR KPKD 090453Z AUTO 35014G23KT 8SM OVC022 M14/M18 A3006 RMK AO2 PK WND 35026/0354 UPB0355E0357B31E32SNB12E29 SLP216 P0000 T11391183
Pressure 30.17 in
Visibility 8.0 miles
Clouds Overcast 2200 ft
Windchill -11 °F
Dew Point -8 °F
Humidity 55%
Rainfall 0.00 in
Snow Depth Not available.
7:34 AM 5:31 PM
New Moon, 1% visible
METAR KPKD 090453Z AUTO 35014G23KT 8SM OVC022 M14/M18 A3006 RMK AO2 PK WND 35026/0354 UPB0355E0357B31E32SNB12E29 SLP216 P0000 T11391183

10-Day Weather Forecast

Almanac

Astronomy

Feb. 08, 2016 Rise Set
Actual Time
Civil Twilight
Nautical Twilight
Astronomical Twilight
Moon
Length of Visible Light
Length of Day
Tomorrow will be .
, % of the Moon is Illuminated

Today's Extremes

State Highs State Lows

Community

WunderPhotos

Upload Photos

1,891,566 photos uploaded!

WunderBlog® & News

Nearby

Air Quality

  Air Quality AQ Index Pollutant
Not available.

Snow Depth

Station Depth Elevation

Earthquake Activity

City Distance Mag. Time & Date
Minimum magnitude displayed is 2.5.

Coastal Water Temperatures

Place Temperature

Stations

Nearby Weather Stations

Station Location Temp. Windchill Dew Point Humidity Wind Precip. Elev Updated Type
                   

Watches & Warnings

There are currently no watches in effect.